createdAt,value
2018-08-09T00:00:11.949Z,11.70
2018-08-09T00:02:40.702Z,10.20
2018-08-09T00:05:09.560Z,9.07
2018-08-09T00:07:38.561Z,6.77
2018-08-09T00:10:07.728Z,12.20
2018-08-09T00:12:36.339Z,5.57
2018-08-09T00:15:05.418Z,11.47
2018-08-09T00:17:34.425Z,8.57
2018-08-09T00:20:03.600Z,6.63
2018-08-09T00:22:32.136Z,12.87
2018-08-09T00:25:00.703Z,20.67
2018-08-09T00:27:29.226Z,14.30
2018-08-09T00:29:57.803Z,14.27
2018-08-09T00:32:26.816Z,11.03
2018-08-09T00:34:55.434Z,9.60
2018-08-09T00:37:24.525Z,13.40
2018-08-09T00:39:53.165Z,15.50
2018-08-09T00:42:21.795Z,11.70
2018-08-09T00:44:50.527Z,8.77
2018-08-09T00:47:19.418Z,7.27
2018-08-09T00:49:48.376Z,17.93
2018-08-09T00:52:16.930Z,13.60
2018-08-09T00:54:45.579Z,12.93
2018-08-09T00:57:14.204Z,10.67
2018-08-09T00:59:43.228Z,6.73
2018-08-09T01:02:11.980Z,7.00
2018-08-09T01:04:40.492Z,16.50
2018-08-09T01:07:09.411Z,12.40
2018-08-09T01:09:37.981Z,7.43
2018-08-09T01:12:06.724Z,14.47
2018-08-09T01:14:35.987Z,20.90
2018-08-09T01:17:04.602Z,13.80
2018-08-09T01:19:33.222Z,18.03
2018-08-09T01:22:02.899Z,11.67
2018-08-09T01:24:31.415Z,6.43
2018-08-09T01:27:00.023Z,12.33
2018-08-09T01:29:28.879Z,13.20
2018-08-09T01:31:57.408Z,13.00
2018-08-09T01:34:25.965Z,11.03
2018-08-09T01:36:54.919Z,14.10
2018-08-09T01:39:23.498Z,13.43
2018-08-09T01:42:04.727Z,19.70
2018-08-09T01:44:33.727Z,18.43
2018-08-09T01:47:02.320Z,19.30
2018-08-09T01:49:30.831Z,9.97
2018-08-09T01:51:59.339Z,12.03
2018-08-09T01:54:28.212Z,11.00
2018-08-09T01:56:56.860Z,20.23
2018-08-09T01:59:25.435Z,7.47
2018-08-09T02:01:53.975Z,10.30
2018-08-09T02:04:22.470Z,19.63
2018-08-09T02:06:50.993Z,9.77
2018-08-09T02:09:24.830Z,12.43
2018-08-09T02:11:53.315Z,13.33
2018-08-09T02:14:21.847Z,17.93
2018-08-09T02:16:50.632Z,10.73
2018-08-09T02:19:19.464Z,13.60
2018-08-09T02:21:48.010Z,23.23
2018-08-09T02:24:16.593Z,12.37
2018-08-09T02:26:45.382Z,10.20
2018-08-09T02:29:14.212Z,21.23
2018-08-09T02:31:42.788Z,18.47
2018-08-09T02:34:11.715Z,16.10
2018-08-09T02:36:40.854Z,10.57
2018-08-09T02:39:10.531Z,9.93
2018-08-09T02:41:39.131Z,12.77
2018-08-09T02:44:07.863Z,21.40
2018-08-09T02:46:36.748Z,18.00
2018-08-09T02:49:05.755Z,13.83
2018-08-09T02:51:34.776Z,14.30
2018-08-09T02:54:04.746Z,19.23
2018-08-09T02:56:33.273Z,10.90
2018-08-09T02:59:02.045Z,8.73
2018-08-09T03:01:30.946Z,13.43
2018-08-09T03:03:59.489Z,19.07
2018-08-09T03:06:27.988Z,12.80
2018-08-09T03:08:56.919Z,19.10
2018-08-09T03:11:25.474Z,18.00
2018-08-09T03:13:54.121Z,16.80
2018-08-09T03:16:22.706Z,17.10
2018-08-09T03:18:51.723Z,13.47
2018-08-09T03:21:20.326Z,14.30
2018-08-09T03:23:48.932Z,13.60
2018-08-09T03:26:17.808Z,13.07
2018-08-09T03:28:46.716Z,28.37
2018-08-09T03:31:15.268Z,21.20
2018-08-09T03:33:44.225Z,9.90
2018-08-09T03:36:12.759Z,13.20
2018-08-09T03:38:41.305Z,16.13
2018-08-09T03:41:10.335Z,15.37
2018-08-09T03:43:38.920Z,13.13
2018-08-09T03:46:07.685Z,10.67
2018-08-09T03:48:36.677Z,16.03
2018-08-09T03:51:05.272Z,15.43
2018-08-09T03:53:33.815Z,16.30
2018-08-09T03:56:05.065Z,10.67
2018-08-09T03:58:33.684Z,12.77
2018-08-09T04:01:02.492Z,11.63
2018-08-09T04:03:31.828Z,19.83
2018-08-09T04:06:00.517Z,17.30
2018-08-09T04:08:29.164Z,12.57
2018-08-09T04:10:57.741Z,22.73
2018-08-09T04:13:28.243Z,16.13
2018-08-09T04:15:56.793Z,14.40
2018-08-09T04:18:25.462Z,19.20
2018-08-09T04:20:55.212Z,23.30
2018-08-09T04:23:23.754Z,15.17
2018-08-09T04:25:52.311Z,20.67
2018-08-09T04:28:20.888Z,11.83
2018-08-09T04:30:49.557Z,22.33
2018-08-09T04:33:18.272Z,23.33
2018-08-09T04:35:47.011Z,18.87
2018-08-09T04:38:16.347Z,30.10
2018-08-09T04:40:44.919Z,27.13
2018-08-09T04:43:13.545Z,32.13
2018-08-09T04:45:42.147Z,23.00
2018-08-09T04:48:15.159Z,28.00
2018-08-09T04:50:43.705Z,18.30
2018-08-09T04:53:12.432Z,20.83
2018-08-09T04:55:41.108Z,38.80
2018-08-09T04:58:09.821Z,29.77
2018-08-09T05:00:38.399Z,29.13
2018-08-09T05:03:07.341Z,23.23
2018-08-09T05:05:35.931Z,26.93
2018-08-09T05:08:07.696Z,21.73
2018-08-09T05:10:36.595Z,19.60
2018-08-09T05:13:05.347Z,20.40
2018-08-09T05:15:33.917Z,22.13
2018-08-09T05:18:03.718Z,25.63
2018-08-09T05:20:32.754Z,25.70
2018-08-09T05:23:01.631Z,17.07
2018-08-09T05:25:30.619Z,24.23
2018-08-09T05:27:59.435Z,32.83
2018-08-09T05:30:28.414Z,22.30
2018-08-09T05:32:57.692Z,19.87
2018-08-09T05:35:28.168Z,23.23
2018-08-09T05:37:57.006Z,20.93
2018-08-09T05:40:25.991Z,21.80
2018-08-09T05:42:54.557Z,25.53
2018-08-09T05:45:23.452Z,31.10
2018-08-09T05:47:52.440Z,28.83
2018-08-09T05:50:21.076Z,20.23
2018-08-09T05:53:01.037Z,25.13
2018-08-09T05:55:30.371Z,26.30
2018-08-09T05:57:58.930Z,23.83
2018-08-09T06:01:05.448Z,21.07
2018-08-09T06:05:59.664Z,34.17
2018-08-09T06:08:29.515Z,30.27
2018-08-09T06:10:58.146Z,21.63
2018-08-09T06:13:27.467Z,19.93
2018-08-09T06:15:56.048Z,21.37
2018-08-09T06:18:24.594Z,15.00
2018-08-09T06:20:53.722Z,17.97
2018-08-09T06:23:22.340Z,26.63
2018-08-09T06:25:50.868Z,12.30
2018-08-09T06:28:19.857Z,22.80
2018-08-09T06:30:48.403Z,16.13
2018-08-09T06:33:18.724Z,20.63
2018-08-09T06:35:47.954Z,33.20
2018-08-09T06:38:18.278Z,32.13
2018-08-09T06:40:47.001Z,58.70
2018-08-09T06:43:17.918Z,48.13
2018-08-09T06:45:48.404Z,47.77
2018-08-09T06:48:18.466Z,61.10
2018-08-09T06:50:50.825Z,55.67
2018-08-09T06:53:24.408Z,52.17
2018-08-09T06:55:53.874Z,34.53
2018-08-09T06:58:24.389Z,22.17
2018-08-09T07:00:54.201Z,16.70
2018-08-09T07:03:24.687Z,14.40
2018-08-09T07:05:59.316Z,23.13
2018-08-09T07:08:31.321Z,15.83
2018-08-09T07:11:01.564Z,16.37
2018-08-09T07:13:31.746Z,17.90
2018-08-09T07:16:01.050Z,24.90
2018-08-09T07:18:31.317Z,16.33
2018-08-09T07:21:03.377Z,19.23
2018-08-09T07:23:34.155Z,14.53
2018-08-09T07:26:06.304Z,15.20
2018-08-09T07:28:36.588Z,13.80
2018-08-09T07:31:06.873Z,24.97
2018-08-09T07:33:37.608Z,23.10
2018-08-09T07:36:10.501Z,19.53
2018-08-09T07:38:48.836Z,14.50
2018-08-09T07:41:24.117Z,14.33
2018-08-09T07:44:07.323Z,15.20
2018-08-09T07:46:50.200Z,17.50
2018-08-09T07:49:30.470Z,22.70
2018-08-09T07:52:03.328Z,17.20
2018-08-09T07:54:35.012Z,22.30
2018-08-09T07:57:13.512Z,13.33
2018-08-09T07:59:54.026Z,32.60
2018-08-09T08:02:31.646Z,27.83
2018-08-09T08:05:10.540Z,23.43
2018-08-09T08:07:50.241Z,22.73
2018-08-09T08:10:26.989Z,16.90
2018-08-09T08:12:59.792Z,19.50
2018-08-09T08:15:54.796Z,19.33
2018-08-09T08:18:29.145Z,10.57
2018-08-09T08:21:15.311Z,14.23
2018-08-09T08:23:50.993Z,17.17
2018-08-09T08:26:26.362Z,21.93
2018-08-09T08:28:58.953Z,20.13
2018-08-09T08:31:40.539Z,13.80
2018-08-09T08:34:09.457Z,20.40
2018-08-09T08:36:38.421Z,15.03
2018-08-09T08:39:08.828Z,20.50
2018-08-09T08:41:37.480Z,14.83
2018-08-09T08:44:06.098Z,13.80
2018-08-09T08:46:35.129Z,18.13
2018-08-09T08:49:04.881Z,10.27
2018-08-09T08:51:33.486Z,20.70
2018-08-09T08:54:03.766Z,16.33
2018-08-09T08:56:32.739Z,15.07
2018-08-09T08:59:01.485Z,17.83
2018-08-09T09:01:30.090Z,17.87
2018-08-09T09:03:59.113Z,20.87
2018-08-09T09:06:27.671Z,16.90
2018-08-09T09:08:56.312Z,18.27
2018-08-09T09:11:25.619Z,18.67
2018-08-09T09:13:54.382Z,15.93
2018-08-09T09:16:22.972Z,13.00
2018-08-09T09:18:52.058Z,15.03
2018-08-09T09:21:20.749Z,5.90
2018-08-09T09:23:49.349Z,14.80
2018-08-09T09:26:19.044Z,11.07
2018-08-09T09:31:18.886Z,16.00
2018-08-09T09:33:47.536Z,22.77
2018-08-09T09:36:16.312Z,17.60
2018-08-09T09:38:45.938Z,17.47
2018-08-09T09:41:14.619Z,22.37
2018-08-09T09:43:43.323Z,24.53
2018-08-09T09:46:12.397Z,14.30
2018-08-09T09:48:40.992Z,15.00
2018-08-09T09:51:09.570Z,16.57
2018-08-09T09:53:38.912Z,14.60
2018-08-09T09:56:07.495Z,25.30
2018-08-09T09:58:36.876Z,22.17
2018-08-09T10:01:11.168Z,13.67
2018-08-09T10:03:39.819Z,12.83
2018-08-09T10:06:08.707Z,15.50
2018-08-09T10:08:37.689Z,14.73
2018-08-09T10:11:06.293Z,15.97
2018-08-09T10:13:35.291Z,18.13
2018-08-09T10:16:05.852Z,21.63
2018-08-09T10:18:34.371Z,12.23
2018-08-09T10:21:05.128Z,13.50
2018-08-09T10:23:36.859Z,12.53
2018-08-09T10:26:13.643Z,12.50
2018-08-09T10:31:39.516Z,10.07
2018-08-09T10:35:34.403Z,10.40
2018-08-09T10:38:08.714Z,7.20
2018-08-09T10:40:46.828Z,15.43
2018-08-09T10:43:20.819Z,12.90
2018-08-09T10:46:11.348Z,17.97
2018-08-09T10:48:46.227Z,10.67
2018-08-09T10:51:18.683Z,12.03
2018-08-09T10:53:47.525Z,7.10
2018-08-09T10:56:24.350Z,14.47
2018-08-09T10:59:01.193Z,7.73
2018-08-09T11:01:33.389Z,9.80
2018-08-09T11:04:06.426Z,13.20
2018-08-09T11:06:43.307Z,6.23
2018-08-09T11:09:17.170Z,13.27
2018-08-09T11:11:48.878Z,13.60
2018-08-09T11:14:23.211Z,14.63
2018-08-09T11:16:57.006Z,7.83
2018-08-09T11:19:31.384Z,11.50
2018-08-09T11:22:06.234Z,12.80
2018-08-09T11:24:43.456Z,9.93
2018-08-09T11:30:22.325Z,10.83
2018-08-09T11:33:03.702Z,9.63
2018-08-09T11:35:39.051Z,16.67
2018-08-09T11:38:30.315Z,5.83
2018-08-09T11:41:07.854Z,6.53
2018-08-09T11:43:50.102Z,11.93
2018-08-09T11:46:23.471Z,10.00
2018-08-09T11:51:49.471Z,9.60
2018-08-09T11:54:19.270Z,12.87
2018-08-09T11:56:48.150Z,14.30
2018-08-09T11:59:16.725Z,17.13
2018-08-09T12:01:45.354Z,11.90
2018-08-09T12:04:19.925Z,15.40
2018-08-09T12:06:48.426Z,10.70
2018-08-09T12:09:18.185Z,12.93
2018-08-09T12:11:48.227Z,10.77
2018-08-09T12:14:20.781Z,12.13
2018-08-09T12:16:49.517Z,10.93
2018-08-09T12:19:20.311Z,8.57
2018-08-09T12:21:48.926Z,12.30
2018-08-09T12:24:21.922Z,12.20
2018-08-09T12:26:50.611Z,9.00
2018-08-09T12:29:20.114Z,16.23
2018-08-09T12:31:48.779Z,9.07
2018-08-09T12:34:17.721Z,10.97
2018-08-09T12:36:46.662Z,16.63
2018-08-09T12:39:15.312Z,7.33
2018-08-09T12:41:44.024Z,13.43
2018-08-09T12:44:12.887Z,6.77
2018-08-09T12:46:41.504Z,12.60
2018-08-09T12:49:10.243Z,8.07
2018-08-09T12:51:38.846Z,216.47
2018-08-09T12:54:07.824Z,146.80
2018-08-09T12:56:36.792Z,188.90
2018-08-09T12:59:05.458Z,76.57
2018-08-09T13:01:39.588Z,97.47
2018-08-09T13:04:08.581Z,30.77
2018-08-09T13:06:37.309Z,25.57
2018-08-09T13:09:08.303Z,8.00
2018-08-09T13:11:38.437Z,20.77
2018-08-09T13:14:07.244Z,4.80
2018-08-09T13:16:35.925Z,6.67
2018-08-09T13:19:06.623Z,5.80
2018-08-09T13:21:35.725Z,6.03
2018-08-09T13:24:05.087Z,7.30
2018-08-09T13:26:33.782Z,3.10
2018-08-09T13:29:03.068Z,11.60
2018-08-09T13:31:31.776Z,4.10
2018-08-09T13:34:00.333Z,2.20
2018-08-09T13:36:32.612Z,5.53
2018-08-09T13:39:01.243Z,4.63
2018-08-09T13:41:29.924Z,3.50
2018-08-09T13:44:06.685Z,5.23
2018-08-09T13:46:35.505Z,3.50
2018-08-09T13:49:04.673Z,4.40
2018-08-09T13:51:33.784Z,4.87
2018-08-09T13:54:02.766Z,2.70
2018-08-09T13:56:33.460Z,2.73
2018-08-09T14:10:20.370Z,9.70
2018-08-09T14:12:49.056Z,4.93
2018-08-09T14:15:18.108Z,7.20
2018-08-09T14:17:46.914Z,2.93
2018-08-09T14:20:17.773Z,7.93
2018-08-09T14:22:46.883Z,17.33
2018-08-09T14:25:15.564Z,4.10
2018-08-09T14:27:44.255Z,2.63
2018-08-09T14:30:14.525Z,5.17
2018-08-09T14:32:43.650Z,6.70
2018-08-09T14:35:14.058Z,5.60
2018-08-09T14:37:43.585Z,4.07
2018-08-09T14:40:12.491Z,4.43
2018-08-09T14:42:41.167Z,4.53
2018-08-09T14:45:12.860Z,7.40
2018-08-09T14:47:51.484Z,4.63
2018-08-09T14:50:21.395Z,6.37
2018-08-09T14:52:50.052Z,9.77
2018-08-09T14:55:18.720Z,4.70
2018-08-09T14:57:47.572Z,7.87
2018-08-09T15:00:20.483Z,4.83
2018-08-09T15:02:49.563Z,7.70
2018-08-09T15:05:29.296Z,3.47
2018-08-09T15:07:58.086Z,4.57
2018-08-09T15:10:26.707Z,9.00
2018-08-09T15:12:57.473Z,3.77
2018-08-09T15:15:26.129Z,7.50
2018-08-09T15:18:00.016Z,8.73
2018-08-09T15:20:28.670Z,7.80
2018-08-09T15:22:57.377Z,2.20
2018-08-09T15:25:26.422Z,2.20
2018-08-09T15:27:55.053Z,5.40
2018-08-09T15:30:23.698Z,4.80
2018-08-09T15:32:52.594Z,4.60
2018-08-09T15:35:21.272Z,5.87
2018-08-09T15:37:53.175Z,2.83
2018-08-09T15:40:22.060Z,7.13
2018-08-09T15:42:56.762Z,3.67
2018-08-09T15:45:25.475Z,7.20
2018-08-09T15:47:54.076Z,3.03
2018-08-09T15:50:28.064Z,5.10
2018-08-09T15:52:57.369Z,2.20
2018-08-09T15:55:26.715Z,3.03
2018-08-09T15:57:55.315Z,2.30
2018-08-09T16:00:26.137Z,4.13
2018-08-09T16:02:54.923Z,2.53
2018-08-09T16:05:30.018Z,3.80
2018-08-09T16:07:58.946Z,8.23
2018-08-09T16:10:32.572Z,4.00
2018-08-09T16:13:04.141Z,3.80
2018-08-09T16:15:34.115Z,3.57
2018-08-09T16:18:05.019Z,2.77
2018-08-09T16:20:33.927Z,4.73
2018-08-09T16:23:03.001Z,11.43
2018-08-09T16:25:31.681Z,5.90
2018-08-09T16:28:00.416Z,2.63
2018-08-09T16:30:29.722Z,6.57
2018-08-09T16:32:58.415Z,3.13
2018-08-09T16:35:27.021Z,4.23
2018-08-09T16:37:55.969Z,5.53
2018-08-09T16:40:26.542Z,2.30
2018-08-09T16:45:29.868Z,8.23
2018-08-09T16:47:58.523Z,2.50
2018-08-09T16:50:27.218Z,7.00
2018-08-09T16:52:56.163Z,4.63
2018-08-09T16:55:25.340Z,4.10
2018-08-09T16:57:57.463Z,2.30
2018-08-09T17:00:26.705Z,3.63
2018-08-09T17:02:55.886Z,3.43
2018-08-09T17:05:31.574Z,2.13
2018-08-09T17:08:00.632Z,2.50
2018-08-09T17:10:29.659Z,5.90
2018-08-09T17:12:58.410Z,2.20
2018-08-09T17:15:28.640Z,4.43
2018-08-09T17:17:58.056Z,2.00
2018-08-09T17:20:34.644Z,4.37
2018-08-09T17:23:04.870Z,2.30
2018-08-09T17:25:33.575Z,5.50
2018-08-09T17:28:02.781Z,2.10
2018-08-09T17:30:31.739Z,2.40
2018-08-09T17:33:05.571Z,4.17
2018-08-09T17:35:34.482Z,2.07
2018-08-09T17:38:04.269Z,5.80
2018-08-09T17:40:33.988Z,2.33
2018-08-09T17:43:03.504Z,8.37
2018-08-09T17:45:38.392Z,3.23
2018-08-09T17:48:07.036Z,2.00
2018-08-09T17:50:35.683Z,3.07
2018-08-09T17:53:05.418Z,4.00
2018-08-09T17:55:34.390Z,6.20
2018-08-09T17:58:04.129Z,5.30
2018-08-09T18:00:34.294Z,1.43
2018-08-09T18:03:03.007Z,4.30
2018-08-09T18:05:35.255Z,2.60
2018-08-09T18:08:05.436Z,6.00
2018-08-09T18:10:35.392Z,3.03
2018-08-09T18:13:04.084Z,1.80
2018-08-09T18:15:37.138Z,4.47
2018-08-09T18:18:06.663Z,4.60
2018-08-09T18:20:36.735Z,2.00
2018-08-09T18:23:05.741Z,1.43
2018-08-09T18:25:34.407Z,4.63
2018-08-09T18:28:04.362Z,3.43
2018-08-09T18:30:33.356Z,4.77
2018-08-09T18:33:04.904Z,6.00
2018-08-09T18:35:33.625Z,4.37
2018-08-09T18:38:03.148Z,5.57
2018-08-09T18:40:32.624Z,5.90
2018-08-09T18:43:04.411Z,3.20
2018-08-09T18:45:33.406Z,1.83
2018-08-09T18:48:04.519Z,3.03
2018-08-09T18:50:33.323Z,2.90
2018-08-09T18:53:02.975Z,3.10
2018-08-09T18:55:31.716Z,5.67
2018-08-09T18:58:00.443Z,4.17
2018-08-09T19:00:30.427Z,4.20
2018-08-09T19:02:59.111Z,2.10
2018-08-09T19:05:28.973Z,2.20
2018-08-09T19:07:57.928Z,3.33
2018-08-09T19:10:29.789Z,2.40
2018-08-09T19:12:58.748Z,2.37
2018-08-09T19:15:29.023Z,2.10
2018-08-09T19:17:57.625Z,2.77
2018-08-09T19:20:33.580Z,1.63
2018-08-09T19:23:03.095Z,6.20
2018-08-09T19:25:32.603Z,1.80
2018-08-09T19:28:04.356Z,1.67
2018-08-09T19:30:35.591Z,1.73
2018-08-09T19:37:38.315Z,4.27
2018-08-09T19:40:08.192Z,2.73
2018-08-09T19:42:43.921Z,1.77
2018-08-09T19:45:14.479Z,1.90
2018-08-09T19:47:43.250Z,1.80
2018-08-09T19:50:18.574Z,2.57
2018-08-09T19:52:47.331Z,1.90
2018-08-09T19:55:17.937Z,1.63
2018-08-09T19:57:47.916Z,5.93
2018-08-09T20:00:24.770Z,2.10
2018-08-09T20:02:53.451Z,1.80
2018-08-09T20:05:22.475Z,2.50
2018-08-09T20:07:51.349Z,2.90
2018-08-09T20:10:20.304Z,2.93
2018-08-09T20:12:49.638Z,2.30
2018-08-09T20:15:19.949Z,2.53
2018-08-09T20:17:48.815Z,2.10
2018-08-09T20:20:20.436Z,1.63
2018-08-09T20:22:49.465Z,1.93
2018-08-09T20:25:24.007Z,2.20
2018-08-09T20:27:53.362Z,4.83
2018-08-09T20:30:27.109Z,1.50
2018-08-09T20:32:55.899Z,8.43
2018-08-09T20:35:26.211Z,1.47
2018-08-09T20:37:55.123Z,1.53
2018-08-09T20:40:35.025Z,2.00
2018-08-09T20:43:06.492Z,1.87
2018-08-09T20:45:46.481Z,1.30
2018-08-09T20:48:15.623Z,1.27
2018-08-09T20:50:44.431Z,2.47
2018-08-09T20:53:13.444Z,1.10
2018-08-09T20:55:42.221Z,1.10
2018-08-09T20:58:10.887Z,1.23
2018-08-09T21:00:43.434Z,1.73
2018-08-09T21:03:14.218Z,1.23
2018-08-09T21:05:42.819Z,0.97
2018-08-09T21:08:16.807Z,2.93
2018-08-09T21:10:45.422Z,1.57
2018-08-09T21:13:14.007Z,1.03
2018-08-09T21:15:44.235Z,1.07
2018-08-09T21:18:19.034Z,1.30
2018-08-09T21:20:49.513Z,0.97
2018-08-09T21:23:18.286Z,0.80
2018-08-09T21:25:46.976Z,0.80
2018-08-09T21:28:16.224Z,2.30
2018-08-09T21:30:44.826Z,2.33
2018-08-09T21:33:18.489Z,1.43
2018-08-09T21:35:47.615Z,0.90
2018-08-09T21:38:20.024Z,1.13
2018-08-09T21:40:48.687Z,0.90
2018-08-09T21:43:17.363Z,0.60
2018-08-09T21:45:46.114Z,0.80
2018-08-09T21:48:17.404Z,2.30
2018-08-09T21:50:46.303Z,0.80
2018-08-09T21:53:25.647Z,2.00
2018-08-09T21:55:54.323Z,1.37
2018-08-09T21:58:23.016Z,4.23
2018-08-09T22:01:02.920Z,0.70
2018-08-09T22:03:33.676Z,1.00
2018-08-09T22:06:08.289Z,1.07
2018-08-09T22:08:43.918Z,1.00
2018-08-09T22:11:23.972Z,1.13
2018-08-09T22:13:57.817Z,0.87
2018-08-09T22:16:31.745Z,0.70
2018-08-09T22:19:05.956Z,1.17
2018-08-09T22:21:47.377Z,1.70
2018-08-09T22:24:16.547Z,1.00
2018-08-09T22:26:45.187Z,0.77
2018-08-09T22:29:24.518Z,3.40
2018-08-09T22:31:53.807Z,2.30
2018-08-09T22:34:22.525Z,1.00
2018-08-09T22:36:51.075Z,4.97
2018-08-09T22:39:20.138Z,1.97
2018-08-09T22:41:48.749Z,3.00
2018-08-09T22:44:17.399Z,1.17
2018-08-09T22:46:46.459Z,0.63
2018-08-09T22:49:15.036Z,0.77
2018-08-09T22:51:43.621Z,0.70
2018-08-09T22:54:12.500Z,0.70
2018-08-09T22:56:41.130Z,1.33
2018-08-09T22:59:09.679Z,0.93
2018-08-09T23:01:38.649Z,0.90
2018-08-09T23:04:07.575Z,1.73
2018-08-09T23:06:36.619Z,0.73
2018-08-09T23:09:08.436Z,0.80
2018-08-09T23:11:37.007Z,1.00
2018-08-09T23:14:06.582Z,0.60
2018-08-09T23:16:35.814Z,1.93
2018-08-09T23:19:09.290Z,0.87
2018-08-09T23:21:37.900Z,0.80
2018-08-09T23:24:06.811Z,0.97
2018-08-09T23:26:35.430Z,0.90
2018-08-09T23:29:05.086Z,0.90
2018-08-09T23:31:34.094Z,0.70
2018-08-09T23:34:03.578Z,0.70
2018-08-09T23:36:32.184Z,0.80
2018-08-09T23:39:01.245Z,0.67
2018-08-09T23:41:29.790Z,0.70
2018-08-09T23:43:58.624Z,1.17
2018-08-09T23:46:32.329Z,1.03
2018-08-09T23:49:00.940Z,15.40
2018-08-09T23:51:29.495Z,2.10
2018-08-09T23:53:58.863Z,0.63
2018-08-09T23:56:30.860Z,0.80
2018-08-09T23:58:59.445Z,3.60
